Wards Creek, Texas
Current Conditions -  °F | °C
As of 5:29 PM on Friday 19 Dec 2014 (Local Time) from KTXK Reporting Station
Overcast Overcast  
Wind Chill: 41°   Ceiling: 900
Heat Index: 45°   Visibility: 7mi
Dew Point: 43°   Wind: 7mph
Humidity: 93%   Direction: 20°NNE
Pressure: 30.18"   Gusts: NA
Location:  33.4874°N, 94.582°W
Report Text: KTXK 192329Z 02006KT 7SM OVC009 07/06 A3018 RMK AO2 CIG 007V013 T00720061
Loading
Personal Weather Stations






























Interactive Weather Map New forecast layout! Learn more

10-Day Weather Forecast

Advertisements
Track Severe Weather on mobile